CheckWX is a tool to help pilots better visualize weather data.  It is not intended as a substitute for an official pre-flight weather briefing.

06:30:56 UTC

KDCY METAR
Daviess County Airport
Washington, Indiana, USA
Current

16 mins ago

KDCY 230615Z AUTO 20006KT 10SM CLR 18/11 A3001 RMK AO2 T01750105
Observed
Apr-23 @ 06:15 UTC
Wind
  • 200° at 6 KTS
Visibility
10 SM
Flight Rules
VFR
Cloud Levels
  • Clear skies
Temperature
18°C / 64°F
Dewpoint
11°C / 52°F
Humidity
64%
Altimeter
30.01" Hg
Pressure
1016.22 hPa
Previous

36 mins ago

KDCY 230555Z AUTO 21008KT 10SM CLR 18/10 A3001 RMK AO2 T01840102 10225 20177 402600083
Observed
Apr-23 @ 05:55 UTC
Wind
  • 210° at 8 KTS
Visibility
10 SM
Flight Rules
VFR
Cloud Levels
  • Clear skies
Temperature
18°C / 64°F
Dewpoint
10°C / 50°F
Humidity
60%
Altimeter
30.01" Hg
Pressure
1016.22 hPa
Previous

56 mins ago

KDCY 230535Z AUTO 21009KT 10SM CLR 19/10 A3001 RMK AO2 T01870102
Observed
Apr-23 @ 05:35 UTC
Wind
  • 210° at 9 KTS
Visibility
10 SM
Flight Rules
VFR
Cloud Levels
  • Clear skies
Temperature
19°C / 66°F
Dewpoint
10°C / 50°F
Humidity
56%
Altimeter
30.01" Hg
Pressure
1016.22 hPa